createdAt,value
2023-06-07T00:00:19.107Z,492.1538
2023-06-07T00:01:20.943Z,503.8462
2023-06-07T00:02:36.869Z,497.2308
2023-06-07T00:03:25.670Z,496.8462
2023-06-07T00:04:26.464Z,514.8461
2023-06-07T00:05:28.321Z,499.0769
2023-06-07T00:06:30.136Z,491.7692
2023-06-07T00:07:31.976Z,486.3846
2023-06-07T00:08:33.840Z,480.6154
2023-06-07T00:09:35.654Z,476.1538
2023-06-07T00:10:37.492Z,477.0769
2023-06-07T00:11:39.316Z,470.0769
2023-06-07T00:12:41.150Z,466.3846
2023-06-07T00:13:43.020Z,469.3846
2023-06-07T00:14:44.849Z,469.6923
2023-06-07T00:15:46.718Z,466.2308
2023-06-07T00:16:48.616Z,463.0769
2023-06-07T00:17:50.487Z,463.0000
2023-06-07T00:18:52.209Z,496.2308
2023-06-07T00:19:54.055Z,495.4615
2023-06-07T00:20:55.933Z,469.7692
2023-06-07T00:21:57.726Z,500.0000
2023-06-07T00:22:59.566Z,509.0769
2023-06-07T00:24:01.412Z,499.6154
2023-06-07T00:25:03.278Z,483.7692
2023-06-07T00:26:05.091Z,475.6154
2023-06-07T00:27:06.939Z,468.2308
2023-06-07T00:28:08.779Z,464.8462
2023-06-07T00:29:10.608Z,470.3846
2023-06-07T00:30:12.458Z,467.7692
2023-06-07T00:31:14.330Z,461.6154
2023-06-07T00:32:16.152Z,457.6154
2023-06-07T00:33:17.970Z,462.0769
2023-06-07T00:34:19.801Z,467.4615
2023-06-07T00:35:21.654Z,473.3077
2023-06-07T00:36:23.545Z,494.7692
2023-06-07T00:37:25.371Z,498.0000
2023-06-07T00:38:27.163Z,523.0769
2023-06-07T00:39:29.002Z,504.6154
2023-06-07T00:40:30.855Z,494.0000
2023-06-07T00:41:32.704Z,489.2308
2023-06-07T00:42:34.535Z,485.4615
2023-06-07T00:43:36.358Z,479.8462
2023-06-07T00:44:38.225Z,473.1538
2023-06-07T00:45:40.031Z,473.9231
2023-06-07T00:46:41.929Z,469.4615
2023-06-07T00:47:43.804Z,473.0000
2023-06-07T00:48:45.671Z,469.0000
2023-06-07T00:49:47.407Z,459.6154
2023-06-07T00:50:49.254Z,466.6923
2023-06-07T00:51:51.174Z,473.1538
2023-06-07T00:52:52.904Z,474.4615
2023-06-07T00:53:54.735Z,489.7692
2023-06-07T00:54:56.600Z,528.3846
2023-06-07T00:55:58.432Z,490.7692
2023-06-07T00:57:00.290Z,508.7692
2023-06-07T00:58:02.097Z,509.6154
2023-06-07T00:59:03.935Z,494.3846
2023-06-07T01:00:06.033Z,483.0769
2023-06-07T01:01:07.639Z,472.2308
2023-06-07T01:02:09.555Z,476.4615
2023-06-07T01:03:11.378Z,476.0769
2023-06-07T01:04:13.135Z,476.8462
2023-06-07T01:05:14.979Z,476.6923
2023-06-07T01:06:16.806Z,471.3077
2023-06-07T01:07:18.711Z,468.5385
2023-06-07T01:08:20.476Z,471.4615
2023-06-07T01:09:22.383Z,474.0000
2023-06-07T01:10:24.173Z,471.2308
2023-06-07T01:11:26.017Z,489.7692
2023-06-07T01:12:27.848Z,520.1539
2023-06-07T01:13:29.682Z,492.6923
2023-06-07T01:14:31.532Z,478.2308
2023-06-07T01:15:33.372Z,498.5385
2023-06-07T01:16:35.252Z,491.0000
2023-06-07T01:17:37.060Z,486.2308
2023-06-07T01:18:38.871Z,484.2308
2023-06-07T01:19:40.722Z,482.2308
2023-06-07T01:20:42.570Z,477.5385
2023-06-07T01:21:44.411Z,473.6154
2023-06-07T01:22:46.271Z,473.9231
2023-06-07T01:23:48.098Z,475.1538
2023-06-07T01:24:49.910Z,474.1538
2023-06-07T01:25:51.748Z,473.3846
2023-06-07T01:26:53.613Z,460.3077
2023-06-07T01:27:55.414Z,480.7692
2023-06-07T01:28:57.242Z,481.0000
2023-06-07T01:29:59.074Z,525.0769
2023-06-07T01:31:00.925Z,476.3077
2023-06-07T01:32:02.779Z,521.3077
2023-06-07T01:33:04.752Z,505.0769
2023-06-07T01:34:06.419Z,506.6923
2023-06-07T01:35:08.256Z,490.5385
2023-06-07T01:36:10.118Z,471.6154
2023-06-07T01:37:11.951Z,472.9231
2023-06-07T01:38:13.855Z,473.4615
2023-06-07T01:39:15.649Z,480.2308
2023-06-07T01:40:17.473Z,486.3077
2023-06-07T01:41:19.300Z,491.3846
2023-06-07T01:42:21.135Z,475.7692
2023-06-07T01:43:22.981Z,466.6923
2023-06-07T01:44:24.820Z,470.3846
2023-06-07T01:45:26.644Z,489.0000
2023-06-07T01:46:28.550Z,473.6923
2023-06-07T01:47:30.302Z,515.8461
2023-06-07T01:48:32.170Z,515.6923
2023-06-07T01:49:33.990Z,497.6154
2023-06-07T01:50:35.826Z,502.0769
2023-06-07T01:51:37.681Z,495.6154
2023-06-07T01:52:39.498Z,491.6923
2023-06-07T01:53:41.364Z,494.5385
2023-06-07T01:54:43.161Z,484.0769
2023-06-07T01:55:45.019Z,471.2308
2023-06-07T01:56:46.875Z,482.7692
2023-06-07T01:57:48.694Z,496.7692
2023-06-07T01:58:50.530Z,486.8462
2023-06-07T01:59:52.357Z,477.5385
2023-06-07T02:00:54.190Z,481.1538
2023-06-07T02:01:56.124Z,468.9231
2023-06-07T02:02:57.900Z,500.8462
2023-06-07T02:03:59.762Z,483.1538
2023-06-07T02:05:01.534Z,532.1539
2023-06-07T02:06:10.956Z,480.6154
2023-06-07T02:07:05.206Z,526.9167
2023-06-07T02:08:07.060Z,504.0000
2023-06-07T02:09:08.961Z,491.5385
2023-06-07T02:10:11.109Z,484.8462
2023-06-07T02:11:12.580Z,479.4615
2023-06-07T02:12:14.405Z,477.9231
2023-06-07T02:13:16.249Z,475.1538
2023-06-07T02:14:18.144Z,477.4615
2023-06-07T02:15:19.940Z,473.9231
2023-06-07T02:16:21.777Z,472.6154
2023-06-07T02:17:23.655Z,481.7692
2023-06-07T02:18:25.494Z,480.9231
2023-06-07T02:19:27.304Z,487.4615
2023-06-07T02:20:29.119Z,482.9231
2023-06-07T02:21:30.982Z,489.2308
2023-06-07T02:22:32.803Z,532.7692
2023-06-07T02:23:34.661Z,491.3846
2023-06-07T02:24:36.562Z,524.3077
2023-06-07T02:25:38.330Z,506.8462
2023-06-07T02:26:40.148Z,487.0769
2023-06-07T02:27:41.978Z,485.3846
2023-06-07T02:28:43.819Z,484.4615
2023-06-07T02:29:45.710Z,484.6923
2023-06-07T02:30:47.512Z,483.1538
2023-06-07T02:31:49.438Z,481.5385
2023-06-07T02:32:51.340Z,481.7692
2023-06-07T02:33:53.013Z,485.3077
2023-06-07T02:34:54.908Z,480.9231
2023-06-07T02:35:56.704Z,471.8462
2023-06-07T02:36:58.544Z,474.4615
2023-06-07T02:38:00.366Z,486.6154
2023-06-07T02:39:02.240Z,510.6154
2023-06-07T02:40:04.286Z,478.3077
2023-06-07T02:41:05.883Z,507.2308
2023-06-07T02:42:07.724Z,521.6923
2023-06-07T02:43:09.577Z,480.2308
2023-06-07T02:44:11.497Z,480.4615
2023-06-07T02:45:13.272Z,484.1538
2023-06-07T02:46:15.097Z,468.2308
2023-06-07T02:47:16.925Z,467.6154
2023-06-07T02:48:18.753Z,487.3846
2023-06-07T02:49:20.606Z,482.9231
2023-06-07T02:50:22.461Z,470.9231
2023-06-07T02:51:24.288Z,475.8462
2023-06-07T02:52:26.110Z,475.5385
2023-06-07T02:53:27.941Z,477.6154
2023-06-07T02:54:29.825Z,480.3077
2023-06-07T02:55:31.642Z,487.2308
2023-06-07T02:56:33.520Z,497.7692
2023-06-07T02:57:35.302Z,529.4615
2023-06-07T02:58:37.132Z,476.3077
2023-06-07T02:59:38.973Z,499.6923
2023-06-07T03:00:40.861Z,484.6923
2023-06-07T03:01:42.662Z,478.6154
2023-06-07T03:02:44.524Z,477.3077
2023-06-07T03:03:46.387Z,474.0769
2023-06-07T03:04:48.155Z,476.5385
2023-06-07T03:05:50.042Z,477.1538
2023-06-07T03:06:51.845Z,477.6923
2023-06-07T03:07:53.705Z,483.2308
2023-06-07T03:08:55.542Z,488.1538
2023-06-07T03:09:57.383Z,485.3077
2023-06-07T03:10:59.209Z,485.6154
2023-06-07T03:12:01.106Z,485.9231
2023-06-07T03:13:02.967Z,479.2308
2023-06-07T03:14:04.782Z,508.5385
2023-06-07T03:15:06.643Z,497.2308
2023-06-07T03:16:08.489Z,495.2308
2023-06-07T03:17:10.573Z,516.5385
2023-06-07T03:18:12.191Z,496.7692
2023-06-07T03:19:13.981Z,493.8462
2023-06-07T03:20:15.811Z,488.6154
2023-06-07T03:21:17.705Z,481.5385
2023-06-07T03:22:19.495Z,479.6923
2023-06-07T03:23:21.314Z,481.9231
2023-06-07T03:24:23.172Z,482.6923
2023-06-07T03:25:25.065Z,478.3077
2023-06-07T03:26:26.919Z,470.6154
2023-06-07T03:27:28.696Z,472.6923
2023-06-07T03:28:30.514Z,479.4615
2023-06-07T03:29:32.366Z,479.9231
2023-06-07T03:30:34.247Z,475.0000
2023-06-07T03:31:36.080Z,507.0000
2023-06-07T03:32:37.907Z,486.6154
2023-06-07T03:33:39.727Z,519.8461
2023-06-07T03:34:41.564Z,516.0769
2023-06-07T03:35:43.391Z,511.6154
2023-06-07T03:36:45.268Z,490.9231
2023-06-07T03:37:47.066Z,487.8462
2023-06-07T03:38:48.902Z,484.2308
2023-06-07T03:39:50.757Z,480.9231
2023-06-07T03:40:52.600Z,481.6154
2023-06-07T03:41:54.596Z,483.7692
2023-06-07T03:42:56.279Z,483.2308
2023-06-07T03:43:58.116Z,478.6154
2023-06-07T03:44:59.938Z,487.3077
2023-06-07T03:46:01.815Z,487.3846
2023-06-07T03:47:03.636Z,483.3077
2023-06-07T03:48:05.513Z,475.3846
2023-06-07T03:49:07.334Z,480.3846
2023-06-07T03:50:09.180Z,529.7692
2023-06-07T03:51:10.986Z,523.2308
2023-06-07T03:52:12.847Z,495.0769
2023-06-07T03:53:14.650Z,509.9231
2023-06-07T03:54:16.485Z,498.3846
2023-06-07T03:55:18.339Z,493.1538
2023-06-07T03:56:20.188Z,483.7692
2023-06-07T03:57:22.050Z,482.1538
2023-06-07T03:58:23.846Z,482.3846
2023-06-07T03:59:25.703Z,480.3846
2023-06-07T04:00:27.558Z,474.4615
2023-06-07T04:01:29.379Z,476.8462
2023-06-07T04:02:31.328Z,475.8462
2023-06-07T04:03:33.123Z,479.0769
2023-06-07T04:04:35.015Z,484.6154
2023-06-07T04:05:36.732Z,487.8462
2023-06-07T04:06:38.584Z,492.4615
2023-06-07T04:07:40.429Z,530.0000
2023-06-07T04:08:42.242Z,519.6154
2023-06-07T04:09:44.085Z,505.1538
2023-06-07T04:10:45.935Z,498.8462
2023-06-07T04:11:47.780Z,494.6923
2023-06-07T04:12:49.773Z,492.4615
2023-06-07T04:13:51.461Z,486.3077
2023-06-07T04:14:53.280Z,474.1538
2023-06-07T04:15:55.129Z,480.8462
2023-06-07T04:16:57.123Z,481.9231
2023-06-07T04:17:58.920Z,479.4615
2023-06-07T04:19:02.270Z,478.0769
2023-06-07T04:20:02.472Z,482.4615
2023-06-07T04:21:04.354Z,483.4615
2023-06-07T04:22:06.176Z,479.1538
2023-06-07T04:23:08.021Z,497.0769
2023-06-07T04:24:09.936Z,515.9231
2023-06-07T04:25:11.699Z,499.9231
2023-06-07T04:26:13.534Z,510.0000
2023-06-07T04:27:15.377Z,526.3846
2023-06-07T04:28:17.262Z,516.2308
2023-06-07T04:29:19.053Z,510.5385
2023-06-07T04:30:20.882Z,503.6154
2023-06-07T04:31:22.736Z,494.1538
2023-06-07T04:32:24.624Z,485.3077
2023-06-07T04:33:26.400Z,488.8462
2023-06-07T04:34:28.233Z,489.6923
2023-06-07T04:35:30.072Z,486.6923
2023-06-07T04:36:31.928Z,486.3846
2023-06-07T04:37:33.757Z,491.9231
2023-06-07T04:38:46.300Z,491.8462
2023-06-07T04:39:39.182Z,485.1538
2023-06-07T04:40:39.741Z,499.0769
2023-06-07T04:41:41.323Z,512.6923
2023-06-07T04:42:42.951Z,489.0000
2023-06-07T04:43:44.837Z,509.8462
2023-06-07T04:44:46.614Z,523.4615
2023-06-07T04:45:48.452Z,509.6923
2023-06-07T04:46:50.290Z,502.1538
2023-06-07T04:47:52.188Z,491.6154
2023-06-07T04:48:54.002Z,477.6923
2023-06-07T04:49:55.800Z,470.9231
2023-06-07T04:50:57.635Z,479.0000
2023-06-07T04:51:59.472Z,488.4615
2023-06-07T04:53:01.320Z,485.5385
2023-06-07T04:54:03.220Z,484.4615
2023-06-07T04:55:04.975Z,483.9231
2023-06-07T04:56:06.827Z,480.3077
2023-06-07T04:57:08.663Z,489.9231
2023-06-07T04:58:10.514Z,480.6923
2023-06-07T04:59:12.348Z,512.6154
2023-06-07T05:00:14.189Z,502.8462
2023-06-07T05:01:16.008Z,543.9231
2023-06-07T05:02:17.835Z,526.6923
2023-06-07T05:03:19.683Z,505.7692
2023-06-07T05:04:21.625Z,499.6154
2023-06-07T05:05:23.440Z,492.2308
2023-06-07T05:06:25.253Z,486.6923
2023-06-07T05:07:27.023Z,481.7692
2023-06-07T05:08:28.863Z,485.1538
2023-06-07T05:09:31.064Z,486.3077
2023-06-07T05:10:32.555Z,482.2308
2023-06-07T05:11:34.405Z,482.8462
2023-06-07T05:12:36.224Z,497.5385
2023-06-07T05:13:38.058Z,519.6154
2023-06-07T05:14:39.905Z,495.2308
2023-06-07T05:15:41.765Z,484.0769
2023-06-07T05:16:44.630Z,514.0769
2023-06-07T05:17:45.447Z,502.8462
2023-06-07T05:18:47.260Z,521.4615
2023-06-07T05:19:49.093Z,496.3077
2023-06-07T05:20:50.922Z,520.6923
2023-06-07T05:21:52.763Z,503.3077
2023-06-07T05:22:54.628Z,497.9231
2023-06-07T05:23:56.451Z,486.9231
2023-06-07T05:24:58.275Z,484.6923
2023-06-07T05:26:00.093Z,488.2308
2023-06-07T05:27:01.944Z,488.3077
2023-06-07T05:28:13.187Z,482.7692
2023-06-07T05:29:08.304Z,479.1538
2023-06-07T05:30:08.896Z,482.8462
2023-06-07T05:31:12.048Z,486.1538
2023-06-07T05:32:11.964Z,483.2308
2023-06-07T05:33:13.539Z,494.0769
2023-06-07T05:34:15.110Z,492.0769
2023-06-07T05:35:16.690Z,536.0000
2023-06-07T05:36:18.451Z,526.5385
2023-06-07T05:37:20.287Z,483.8462
2023-06-07T05:38:22.115Z,508.3077
2023-06-07T05:39:23.946Z,504.2308
2023-06-07T05:40:25.813Z,503.1538
2023-06-07T05:41:27.628Z,494.2308
2023-06-07T05:42:29.453Z,487.1538
2023-06-07T05:43:31.295Z,477.9231
2023-06-07T05:44:33.132Z,475.6154
2023-06-07T05:45:35.013Z,479.2308
2023-06-07T05:46:36.830Z,479.2308
2023-06-07T05:47:38.702Z,479.3077
2023-06-07T05:48:40.476Z,475.8462
2023-06-07T05:49:42.334Z,477.2308
2023-06-07T05:50:44.158Z,484.6154
2023-06-07T05:51:45.991Z,494.7692
2023-06-07T05:52:47.832Z,504.0769
2023-06-07T05:53:49.664Z,518.7692
2023-06-07T05:54:51.494Z,516.9231
2023-06-07T05:55:53.349Z,517.2308
2023-06-07T05:56:55.161Z,500.5385
2023-06-07T05:57:57.040Z,493.7692
2023-06-07T05:58:58.857Z,486.2308
2023-06-07T06:00:00.677Z,482.9231
2023-06-07T06:01:02.556Z,483.4615
2023-06-07T06:02:04.380Z,481.6923
2023-06-07T06:03:06.226Z,479.6154
2023-06-07T06:04:08.048Z,481.0769
2023-06-07T06:05:10.048Z,478.1538
2023-06-07T06:06:11.720Z,475.9231
2023-06-07T06:07:13.552Z,475.6923
2023-06-07T06:08:15.407Z,478.7692
2023-06-07T06:09:17.274Z,488.6154
2023-06-07T06:10:19.080Z,508.6923
2023-06-07T06:11:20.935Z,527.0769
2023-06-07T06:12:22.767Z,494.0769
2023-06-07T06:13:24.607Z,505.6154
2023-06-07T06:14:26.510Z,503.0769
2023-06-07T06:15:28.273Z,491.4615
2023-06-07T06:16:30.180Z,489.0769
2023-06-07T06:17:31.993Z,488.5385
2023-06-07T06:18:33.842Z,484.3846
2023-06-07T06:19:35.640Z,485.7692
2023-06-07T06:20:37.477Z,487.4615
2023-06-07T06:21:39.315Z,488.9231
2023-06-07T06:22:41.159Z,488.8462
2023-06-07T06:23:43.025Z,485.6923
2023-06-07T06:24:44.826Z,478.6154
2023-06-07T06:25:46.652Z,475.1538
2023-06-07T06:26:48.499Z,489.7692
2023-06-07T06:27:50.399Z,499.5385
2023-06-07T06:28:52.182Z,528.6154
2023-06-07T06:29:54.009Z,513.3846
2023-06-07T06:30:55.861Z,503.0769
2023-06-07T06:31:57.685Z,511.7692
2023-06-07T06:32:59.561Z,498.1538
2023-06-07T06:34:01.343Z,489.4615
2023-06-07T06:35:03.174Z,484.1538
2023-06-07T06:36:05.004Z,480.7692
2023-06-07T06:37:06.928Z,482.3077
2023-06-07T06:38:08.840Z,479.7692
2023-06-07T06:39:10.504Z,480.6154
2023-06-07T06:40:12.341Z,482.0000
2023-06-07T06:41:14.190Z,488.3846
2023-06-07T06:42:16.035Z,487.0000
2023-06-07T06:43:17.868Z,488.3846
2023-06-07T06:44:19.687Z,480.6923
2023-06-07T06:45:21.528Z,508.2308
2023-06-07T06:46:23.459Z,526.3846
2023-06-07T06:47:25.266Z,509.0769
2023-06-07T06:48:27.019Z,520.6154
2023-06-07T06:49:28.866Z,508.0000
2023-06-07T06:50:33.347Z,494.2308
2023-06-07T06:51:32.541Z,489.3846
2023-06-07T06:52:34.386Z,481.6154
2023-06-07T06:53:36.233Z,477.9231
2023-06-07T06:54:38.065Z,477.4615
2023-06-07T06:55:39.878Z,476.0769
2023-06-07T06:56:41.734Z,476.9231
2023-06-07T06:57:43.562Z,474.8462
2023-06-07T06:58:45.404Z,474.9231
2023-06-07T06:59:50.067Z,473.0000
2023-06-07T07:00:49.215Z,482.0000
2023-06-07T07:01:50.932Z,478.0769
2023-06-07T07:02:52.976Z,488.9231
2023-06-07T07:03:54.612Z,523.9231
2023-06-07T07:04:56.402Z,492.6923
2023-06-07T07:05:58.253Z,523.7692
2023-06-07T07:07:00.080Z,506.9231
2023-06-07T07:08:01.931Z,498.1538
2023-06-07T07:09:03.743Z,500.5385
2023-06-07T07:10:05.741Z,492.6923
2023-06-07T07:11:07.418Z,489.3846
2023-06-07T07:12:09.259Z,486.3077
2023-06-07T07:13:11.118Z,489.2308
2023-06-07T07:14:12.913Z,486.6923
2023-06-07T07:15:14.786Z,481.2308
2023-06-07T07:16:16.762Z,480.7692
2023-06-07T07:17:18.500Z,482.8462
2023-06-07T07:18:20.346Z,472.6923
2023-06-07T07:19:22.174Z,488.0000
2023-06-07T07:20:24.008Z,513.5385
2023-06-07T07:21:25.863Z,473.5385
2023-06-07T07:22:29.109Z,492.8462
2023-06-07T07:23:29.568Z,528.0000
2023-06-07T07:24:31.361Z,507.6154
2023-06-07T07:25:33.202Z,497.9231
2023-06-07T07:26:35.051Z,491.1538
2023-06-07T07:27:36.907Z,480.8462
2023-06-07T07:28:38.760Z,488.8462
2023-06-07T07:29:40.553Z,484.8462
2023-06-07T07:30:42.393Z,480.1538
2023-06-07T07:31:44.225Z,474.9231
2023-06-07T07:32:46.145Z,483.7692
2023-06-07T07:33:48.182Z,490.4615
2023-06-07T07:34:49.810Z,485.0769
2023-06-07T07:35:51.584Z,489.9231
2023-06-07T07:36:53.409Z,479.9231
2023-06-07T07:37:55.258Z,530.3846
2023-06-07T07:38:57.118Z,528.3077
2023-06-07T07:39:58.941Z,500.5385
2023-06-07T07:41:00.772Z,509.6923
2023-06-07T07:42:03.579Z,519.6154
2023-06-07T07:43:04.474Z,500.5385
2023-06-07T07:44:06.320Z,492.0769
2023-06-07T07:45:08.140Z,491.0000
2023-06-07T07:46:10.014Z,485.3846
2023-06-07T07:47:11.812Z,482.1538
2023-06-07T07:48:13.696Z,481.5385
2023-06-07T07:49:15.567Z,480.8462
2023-06-07T07:50:17.331Z,475.9231
2023-06-07T07:51:19.149Z,481.0000
2023-06-07T07:52:22.649Z,480.1538
2023-06-07T07:53:22.842Z,486.0000
2023-06-07T07:54:24.697Z,500.3077
2023-06-07T07:55:26.518Z,524.5385
2023-06-07T07:56:28.357Z,497.7692
2023-06-07T07:57:30.181Z,518.3077
2023-06-07T07:58:32.040Z,517.9231
2023-06-07T07:59:34.112Z,504.2308
2023-06-07T08:00:35.715Z,490.5385
2023-06-07T08:01:37.572Z,491.1538
2023-06-07T08:02:39.506Z,490.4615
2023-06-07T08:03:41.347Z,485.0769
2023-06-07T08:04:43.227Z,476.0000
2023-06-07T08:05:44.915Z,479.4615
2023-06-07T08:06:46.751Z,473.8462
2023-06-07T08:07:48.585Z,463.6923
2023-06-07T08:08:50.407Z,471.6923
2023-06-07T08:09:52.266Z,480.3846
2023-06-07T08:10:54.105Z,471.6154
2023-06-07T08:11:55.929Z,495.5385
2023-06-07T08:12:57.763Z,499.6154
2023-06-07T08:13:59.604Z,493.8462
2023-06-07T08:15:01.459Z,521.4615
2023-06-07T08:16:03.320Z,514.8461
2023-06-07T08:17:05.119Z,487.6923
2023-06-07T08:18:06.956Z,485.1538
2023-06-07T08:19:08.827Z,498.1538
2023-06-07T08:20:10.647Z,491.2308
2023-06-07T08:21:12.453Z,492.0769
2023-06-07T08:22:14.302Z,485.3077
2023-06-07T08:23:16.142Z,469.5385
2023-06-07T08:24:17.963Z,471.0769
2023-06-07T08:25:19.835Z,472.0000
2023-06-07T08:26:21.635Z,473.0000
2023-06-07T08:27:23.467Z,485.6154
2023-06-07T08:28:25.290Z,477.8462
2023-06-07T08:29:27.125Z,485.0769
2023-06-07T08:30:29.002Z,518.1539
2023-06-07T08:31:30.841Z,490.1538
2023-06-07T08:32:32.749Z,489.3846
2023-06-07T08:33:34.478Z,514.1539
2023-06-07T08:34:36.318Z,502.8462
2023-06-07T08:35:38.153Z,484.4615
2023-06-07T08:36:39.990Z,477.9231
2023-06-07T08:37:41.809Z,480.7692
2023-06-07T08:38:43.661Z,469.3846
2023-06-07T08:39:45.485Z,472.0769
2023-06-07T08:40:47.339Z,475.7692
2023-06-07T08:41:49.157Z,475.8462
2023-06-07T08:42:51.009Z,475.6923
2023-06-07T08:43:52.807Z,473.8462
2023-06-07T08:44:54.653Z,468.4615
2023-06-07T08:45:56.618Z,474.7692
2023-06-07T08:46:58.307Z,501.3846
2023-06-07T08:48:00.240Z,486.2308
2023-06-07T08:49:01.984Z,520.0769
2023-06-07T08:50:04.259Z,497.5385
2023-06-07T08:51:05.671Z,514.7692
2023-06-07T08:53:10.309Z,487.3077
2023-06-07T08:54:11.158Z,482.3846
2023-06-07T08:55:13.197Z,472.6923
2023-06-07T08:56:17.889Z,468.5385
2023-06-07T08:57:16.677Z,461.6923
2023-06-07T08:58:18.492Z,468.6923
2023-06-07T08:59:20.316Z,472.3077
2023-06-07T09:00:22.152Z,473.6923
2023-06-07T09:01:24.100Z,472.3077
2023-06-07T09:02:25.978Z,474.0769
2023-06-07T09:03:27.762Z,484.0000
2023-06-07T09:04:29.541Z,465.1538
2023-06-07T09:05:31.644Z,482.9231
2023-06-07T09:06:33.262Z,531.8461
2023-06-07T09:07:35.040Z,495.3846
2023-06-07T09:08:36.870Z,491.7692
2023-06-07T09:09:38.697Z,497.8462
2023-06-07T09:10:40.541Z,487.0000
2023-06-07T09:11:42.404Z,483.6154
2023-06-07T09:12:44.243Z,478.5385
2023-06-07T09:13:46.077Z,465.8462
2023-06-07T09:14:47.893Z,461.0769
2023-06-07T09:15:49.724Z,462.5385
2023-06-07T09:16:51.772Z,468.0769
2023-06-07T09:17:53.688Z,465.6923
2023-06-07T09:18:55.359Z,467.3077
2023-06-07T09:19:57.088Z,457.9231
2023-06-07T09:20:58.937Z,466.3846
2023-06-07T09:22:00.949Z,485.3077
2023-06-07T09:23:02.612Z,497.9231
2023-06-07T09:24:04.461Z,493.6923
2023-06-07T09:25:06.608Z,519.4615
2023-06-07T09:26:08.120Z,463.6923
2023-06-07T09:27:09.977Z,491.4615
2023-06-07T09:28:11.789Z,487.4615
2023-06-07T09:29:13.623Z,476.3846
2023-06-07T09:30:15.470Z,473.9231
2023-06-07T09:31:17.337Z,471.9231
2023-06-07T09:32:19.187Z,472.7692
2023-06-07T09:33:21.041Z,471.7692
2023-06-07T09:34:22.799Z,475.3077
2023-06-07T09:35:24.649Z,467.2308
2023-06-07T09:36:26.522Z,463.1538
2023-06-07T09:37:28.462Z,461.7692
2023-06-07T09:38:30.155Z,470.3846
2023-06-07T09:39:32.006Z,473.1538
2023-06-07T09:40:33.829Z,469.6923
2023-06-07T09:41:35.654Z,517.3846
2023-06-07T09:42:37.508Z,467.9231
2023-06-07T09:43:39.348Z,515.5385
2023-06-07T09:44:41.173Z,480.5385
2023-06-07T09:45:43.039Z,484.7692
2023-06-07T09:46:44.860Z,480.5385
2023-06-07T09:47:46.694Z,476.2308
2023-06-07T09:48:48.777Z,475.0769
2023-06-07T09:49:50.389Z,479.2308
2023-06-07T09:50:52.203Z,476.3077
2023-06-07T09:51:54.102Z,476.9231
2023-06-07T09:52:55.920Z,473.5385
2023-06-07T09:53:57.752Z,472.8462
2023-06-07T09:54:59.545Z,471.3077
2023-06-07T09:56:01.466Z,472.2308
2023-06-07T09:57:03.221Z,470.2308
2023-06-07T09:58:05.048Z,494.7692
2023-06-07T09:59:06.902Z,495.3846
2023-06-07T10:00:09.128Z,537.7692
2023-06-07T10:01:10.581Z,480.0769
2023-06-07T10:02:12.395Z,499.0000
2023-06-07T10:03:14.368Z,483.5385
2023-06-07T10:04:16.115Z,481.0769
2023-06-07T10:05:17.897Z,477.9231
2023-06-07T10:06:19.733Z,476.0769
2023-06-07T10:07:21.572Z,472.7692
2023-06-07T10:08:23.455Z,471.6923
2023-06-07T10:09:25.268Z,472.8462
2023-06-07T10:10:27.104Z,473.1538
2023-06-07T10:11:28.896Z,467.6154
2023-06-07T10:12:30.758Z,462.9231
2023-06-07T10:13:32.644Z,466.7692
2023-06-07T10:14:34.563Z,479.6154
2023-06-07T10:15:36.254Z,469.0769
2023-06-07T10:16:38.139Z,509.1538
2023-06-07T10:17:39.949Z,493.4615
2023-06-07T10:18:41.783Z,493.2308
2023-06-07T10:19:43.612Z,487.2308
2023-06-07T10:20:45.510Z,480.2308
2023-06-07T10:21:47.330Z,476.4615
2023-06-07T10:22:49.143Z,471.8462
2023-06-07T10:23:51.096Z,462.2308
2023-06-07T10:24:52.867Z,468.5385
2023-06-07T10:25:54.623Z,470.9231
2023-06-07T10:26:56.477Z,472.6154
2023-06-07T10:27:58.302Z,468.7692
2023-06-07T10:29:00.159Z,469.1538
2023-06-07T10:30:02.012Z,469.6923
2023-06-07T10:31:03.816Z,462.9231
2023-06-07T10:32:05.703Z,460.5385
2023-06-07T10:33:07.540Z,480.0000
2023-06-07T10:34:09.390Z,475.6154
2023-06-07T10:35:13.614Z,494.5385
2023-06-07T10:36:13.061Z,497.3846
2023-06-07T10:37:14.908Z,494.3077
2023-06-07T10:38:16.698Z,477.7692
2023-06-07T10:39:18.566Z,471.7692
2023-06-07T10:40:20.406Z,465.2308
2023-06-07T10:41:22.223Z,464.0000
2023-06-07T10:42:24.047Z,464.6154
2023-06-07T10:43:25.879Z,461.3846
2023-06-07T10:44:27.798Z,454.0000
2023-06-07T10:45:29.570Z,457.7692
2023-06-07T10:46:31.425Z,459.6154
2023-06-07T10:47:33.287Z,463.5385
2023-06-07T10:48:35.134Z,465.3077
2023-06-07T10:49:36.973Z,456.6923
2023-06-07T10:50:38.801Z,472.6154
2023-06-07T10:51:40.666Z,500.0000
2023-06-07T10:52:42.461Z,505.0000
2023-06-07T10:53:44.347Z,475.8462
2023-06-07T10:54:46.143Z,467.3846
2023-06-07T10:55:47.986Z,471.0769
2023-06-07T10:56:49.819Z,464.0000
2023-06-07T10:57:51.664Z,456.3077
2023-06-07T10:58:53.488Z,460.6154
2023-06-07T10:59:55.334Z,461.6923
2023-06-07T11:00:57.226Z,464.0769
2023-06-07T11:01:59.076Z,461.8462
2023-06-07T11:03:00.949Z,452.6154
2023-06-07T11:04:02.960Z,448.4615
2023-06-07T11:05:04.893Z,456.3846
2023-06-07T11:06:06.796Z,456.9231
2023-06-07T11:07:08.195Z,449.3077
2023-06-07T11:08:10.039Z,479.5385
2023-06-07T11:09:11.870Z,479.2308
2023-06-07T11:10:13.844Z,504.9231
2023-06-07T11:11:15.575Z,486.3077
2023-06-07T11:12:17.419Z,477.0000
2023-06-07T11:13:19.253Z,480.3077
2023-06-07T11:14:21.087Z,468.6154
2023-06-07T11:15:23.091Z,465.5385
2023-06-07T11:16:24.823Z,460.1538
2023-06-07T11:17:26.660Z,459.3077
2023-06-07T11:18:28.579Z,459.4615
2023-06-07T11:19:30.424Z,461.2308
2023-06-07T11:20:32.205Z,462.2308
2023-06-07T11:21:34.031Z,451.0769
2023-06-07T11:22:35.900Z,449.6154
2023-06-07T11:23:37.771Z,450.2308
2023-06-07T11:24:39.631Z,484.0769
2023-06-07T11:25:41.548Z,467.6923
2023-06-07T11:26:43.238Z,523.1539
2023-06-07T11:27:45.083Z,482.5385
2023-06-07T11:28:46.991Z,484.0000
2023-06-07T11:29:48.741Z,467.7692
2023-06-07T11:30:50.597Z,466.4615
2023-06-07T11:31:52.465Z,459.4615
2023-06-07T11:32:54.301Z,455.2308
2023-06-07T11:33:56.123Z,452.9231
2023-06-07T11:34:58.013Z,457.3846
2023-06-07T11:35:59.786Z,452.6923
2023-06-07T11:37:01.625Z,463.5385
2023-06-07T11:38:03.469Z,465.3077
2023-06-07T11:39:05.311Z,454.0769
2023-06-07T11:40:07.410Z,463.4615
2023-06-07T11:41:08.996Z,458.6923
2023-06-07T11:42:10.849Z,464.4615
2023-06-07T11:43:12.671Z,426.9231
2023-06-07T11:44:14.504Z,498.6923
2023-06-07T11:45:16.350Z,471.3077
2023-06-07T11:46:18.180Z,491.3077
2023-06-07T11:47:20.062Z,487.0000
2023-06-07T11:48:21.945Z,457.8462
2023-06-07T11:49:23.701Z,434.5385
2023-06-07T11:50:25.521Z,455.0000
2023-06-07T11:51:27.590Z,448.9231
2023-06-07T11:52:29.196Z,449.7692
2023-06-07T11:53:31.041Z,435.4615
2023-06-07T11:54:32.889Z,437.1538
2023-06-07T11:55:34.720Z,449.0769
2023-06-07T11:56:36.592Z,452.3846
2023-06-07T11:57:38.427Z,436.0000
2023-06-07T11:58:40.248Z,455.3846
2023-06-07T11:59:42.204Z,471.8462
2023-06-07T12:00:43.949Z,453.9231
2023-06-07T12:01:45.777Z,504.2308
2023-06-07T12:02:47.628Z,483.8462
2023-06-07T12:03:49.534Z,457.0000
2023-06-07T12:04:51.318Z,471.1538
2023-06-07T12:05:53.093Z,456.3846
2023-06-07T12:06:54.946Z,446.9231